createdAt,value
2018-09-22T00:00:31.242Z,100412.00
2018-09-22T00:03:00.442Z,100412.00
2018-09-22T00:08:30.233Z,100421.00
2018-09-22T00:10:59.381Z,100424.00
2018-09-22T00:13:28.549Z,100427.00
2018-09-22T00:15:57.729Z,100446.00
2018-09-22T00:18:26.874Z,100441.00
2018-09-22T00:20:56.050Z,100436.00
2018-09-22T00:23:25.270Z,100448.00
2018-09-22T00:25:54.433Z,100446.00
2018-09-22T00:28:23.718Z,100438.00
2018-09-22T00:30:52.922Z,100438.00
2018-09-22T00:36:22.442Z,100440.00
2018-09-22T00:38:51.608Z,100446.00
2018-09-22T00:41:20.763Z,100448.00
2018-09-22T00:43:50.158Z,100451.00
2018-09-22T00:46:19.530Z,100453.00
2018-09-22T00:48:48.706Z,100462.00
2018-09-22T00:51:17.885Z,100444.00
2018-09-22T00:53:47.051Z,100453.00
2018-09-22T00:56:16.207Z,100467.00
2018-09-22T00:58:45.393Z,100470.00
2018-09-22T01:01:14.549Z,100471.00
2018-09-22T01:03:43.698Z,100473.00
2018-09-22T01:06:12.940Z,100470.00
2018-09-22T01:08:42.259Z,100476.00
2018-09-22T01:11:11.407Z,100481.00
2018-09-22T01:13:40.584Z,100472.00
2018-09-22T01:20:15.654Z,100476.00
2018-09-22T01:22:44.837Z,100480.00
2018-09-22T01:25:13.997Z,100477.00
2018-09-22T01:27:43.185Z,100483.00
2018-09-22T01:30:12.351Z,100476.00
2018-09-22T01:34:11.071Z,100505.00
2018-09-22T01:36:40.764Z,100515.00
2018-09-22T01:39:11.009Z,100521.00
2018-09-22T01:41:40.888Z,100532.00
2018-09-22T01:44:10.182Z,100554.00
2018-09-22T01:46:39.414Z,100558.00
2018-09-22T01:49:08.577Z,100563.00
2018-09-22T01:51:37.724Z,100551.00
2018-09-22T01:54:06.598Z,100537.00
2018-09-22T01:56:35.732Z,100539.00
2018-09-22T01:59:12.948Z,100541.00
2018-09-22T02:01:42.114Z,100553.00
2018-09-22T02:04:11.256Z,100560.00
2018-09-22T02:06:40.437Z,100570.00
2018-09-22T02:09:10.550Z,100575.00
2018-09-22T02:11:39.852Z,100576.00
2018-09-22T02:14:09.023Z,100590.00
2018-09-22T02:16:38.198Z,100578.00
2018-09-22T02:19:07.381Z,100582.00
2018-09-22T02:21:36.609Z,100578.00
2018-09-22T02:24:05.773Z,100581.00
2018-09-22T02:26:34.965Z,100590.00
2018-09-22T02:29:04.117Z,100591.00
2018-09-22T02:31:33.717Z,100587.00
2018-09-22T02:34:02.896Z,100593.00
2018-09-22T02:36:32.049Z,100588.00
2018-09-22T02:39:01.189Z,100597.00
2018-09-22T02:41:30.373Z,100589.00
2018-09-22T02:43:59.513Z,100597.00
2018-09-22T02:46:28.748Z,100603.00
2018-09-22T02:48:57.925Z,100607.00
2018-09-22T02:51:27.209Z,100610.00
2018-09-22T02:53:56.366Z,100617.00
2018-09-22T02:56:25.679Z,100625.00
2018-09-22T02:58:54.838Z,100623.00
2018-09-22T03:01:24.036Z,100621.00
2018-09-22T03:03:53.200Z,100623.00
2018-09-22T03:06:22.366Z,100631.00
2018-09-22T03:09:11.796Z,100639.00
2018-09-22T03:11:40.991Z,100633.00
2018-09-22T03:14:10.465Z,100637.00
2018-09-22T03:16:40.106Z,100637.00
2018-09-22T03:19:09.272Z,100637.00
2018-09-22T03:21:38.528Z,100647.00
2018-09-22T03:24:07.697Z,100650.00
2018-09-22T03:26:36.849Z,100653.00
2018-09-22T03:29:06.265Z,100650.00
2018-09-22T03:31:35.457Z,100655.00
2018-09-22T03:34:04.629Z,100652.00
2018-09-22T03:36:33.840Z,100663.00
2018-09-22T03:39:03.061Z,100666.00
2018-09-22T03:41:32.227Z,100655.00
2018-09-22T03:44:01.373Z,100666.00
2018-09-22T03:46:30.593Z,100675.00
2018-09-22T03:48:59.761Z,100674.00
2018-09-22T03:51:28.936Z,100667.00
2018-09-22T03:53:58.113Z,100676.00
2018-09-22T03:56:27.318Z,100667.00
2018-09-22T03:58:56.465Z,100685.00
2018-09-22T04:01:25.650Z,100691.00
2018-09-22T04:03:54.825Z,100690.00
2018-09-22T04:06:23.986Z,100703.00
2018-09-22T04:08:53.225Z,100710.00
2018-09-22T04:11:22.366Z,100708.00
2018-09-22T04:13:51.598Z,100716.00
2018-09-22T04:16:20.798Z,100719.00
2018-09-22T04:19:11.208Z,100723.00
2018-09-22T04:21:40.397Z,100722.00
2018-09-22T04:24:14.696Z,100728.00
2018-09-22T04:26:43.897Z,100726.00
2018-09-22T04:29:13.073Z,100725.00
2018-09-22T04:31:42.420Z,100719.00
2018-09-22T04:34:11.866Z,100724.00
2018-09-22T04:36:41.104Z,100718.00
2018-09-22T04:39:10.955Z,100710.00
2018-09-22T04:41:41.642Z,100705.00
2018-09-22T04:44:10.887Z,100705.00
2018-09-22T04:46:40.041Z,100709.00
2018-09-22T04:49:09.221Z,100724.00
2018-09-22T04:51:38.391Z,100727.00
2018-09-22T04:54:07.549Z,100728.00
2018-09-22T04:56:37.323Z,100722.00
2018-09-22T04:59:06.535Z,100739.00
2018-09-22T05:01:35.694Z,100737.00
2018-09-22T05:04:04.864Z,100741.00
2018-09-22T05:06:34.054Z,100742.00
2018-09-22T05:09:03.223Z,100749.00
2018-09-22T05:11:32.489Z,100752.00
2018-09-22T05:14:01.849Z,100751.00
2018-09-22T05:16:30.994Z,100746.00
2018-09-22T05:19:00.192Z,100758.00
2018-09-22T05:21:29.378Z,100747.00
2018-09-22T05:23:58.522Z,100753.00
2018-09-22T05:26:27.706Z,100755.00
2018-09-22T05:29:12.970Z,100767.00
2018-09-22T05:31:42.173Z,100766.00
2018-09-22T05:35:40.790Z,100760.00
2018-09-22T05:38:10.009Z,100764.00
2018-09-22T05:40:39.161Z,100763.00
2018-09-22T05:43:14.725Z,100773.00
2018-09-22T05:47:13.320Z,100782.00
2018-09-22T05:49:42.509Z,100770.00
2018-09-22T05:52:11.742Z,100774.00
2018-09-22T05:54:40.884Z,100775.00
2018-09-22T05:57:13.904Z,100769.00
2018-09-22T05:59:43.108Z,100764.00
2018-09-22T06:02:13.602Z,100770.00
2018-09-22T06:04:42.766Z,100765.00
2018-09-22T06:07:11.934Z,100772.00
2018-09-22T06:09:41.231Z,100759.00
2018-09-22T06:12:10.323Z,100758.00
2018-09-22T06:14:40.274Z,100757.00
2018-09-22T06:17:09.501Z,100762.00
2018-09-22T06:19:38.664Z,100763.00
2018-09-22T06:22:07.963Z,100772.00
2018-09-22T06:25:24.782Z,100771.00
2018-09-22T06:27:54.134Z,100768.00
2018-09-22T06:30:23.293Z,100764.00
2018-09-22T06:32:52.500Z,100770.00
2018-09-22T06:35:21.665Z,100781.00
2018-09-22T06:37:50.869Z,100780.00
2018-09-22T06:40:20.391Z,100785.00
2018-09-22T06:42:49.554Z,100783.00
2018-09-22T06:45:18.765Z,100772.00
2018-09-22T06:47:47.985Z,100781.00
2018-09-22T06:50:17.267Z,100782.00
2018-09-22T06:52:46.430Z,100782.00
2018-09-22T06:55:15.604Z,100771.00
2018-09-22T06:57:44.754Z,100781.00
2018-09-22T07:00:13.897Z,100780.00
2018-09-22T07:02:43.117Z,100785.00
2018-09-22T07:05:12.278Z,100785.00
2018-09-22T07:07:41.437Z,100789.00
2018-09-22T07:10:10.630Z,100788.00
2018-09-22T07:12:39.824Z,100783.00
2018-09-22T07:15:15.902Z,100789.00
2018-09-22T07:17:45.063Z,100789.00
2018-09-22T07:23:16.481Z,100798.00
2018-09-22T07:25:45.832Z,100807.00
2018-09-22T07:28:15.031Z,100803.00
2018-09-22T07:31:00.845Z,100797.00
2018-09-22T07:33:30.119Z,100806.00
2018-09-22T07:39:12.484Z,100794.00
2018-09-22T07:44:46.266Z,100790.00
2018-09-22T07:47:15.478Z,100799.00
2018-09-22T07:49:44.749Z,100796.00
2018-09-22T07:52:14.058Z,100796.00
2018-09-22T07:55:06.508Z,100796.00
2018-09-22T07:57:35.861Z,100806.00
2018-09-22T08:00:05.606Z,100799.00
2018-09-22T08:03:22.940Z,100797.00
2018-09-22T08:06:15.198Z,100796.00
2018-09-22T08:12:24.316Z,100800.00
2018-09-22T08:14:53.517Z,100795.00
2018-09-22T08:17:23.040Z,100794.00
2018-09-22T08:19:52.436Z,100806.00
2018-09-22T08:22:31.605Z,100808.00
2018-09-22T08:25:03.190Z,100808.00
2018-09-22T08:27:32.827Z,100805.00
2018-09-22T08:30:02.110Z,100807.00
2018-09-22T08:32:33.383Z,100815.00
2018-09-22T08:35:11.447Z,100805.00
2018-09-22T08:37:40.665Z,100803.00
2018-09-22T08:40:09.852Z,100815.00
2018-09-22T08:42:39.015Z,100813.00
2018-09-22T08:45:08.263Z,100816.00
2018-09-22T08:47:38.162Z,100809.00
2018-09-22T08:50:07.611Z,100811.00
2018-09-22T08:52:36.803Z,100814.00
2018-09-22T08:55:06.110Z,100809.00
2018-09-22T08:57:45.332Z,100812.00
2018-09-22T09:00:15.006Z,100812.00
2018-09-22T09:02:54.838Z,100805.00
2018-09-22T09:05:26.133Z,100803.00
2018-09-22T09:07:55.854Z,100798.00
2018-09-22T09:10:26.181Z,100816.00
2018-09-22T09:12:55.699Z,100824.00
2018-09-22T09:15:25.026Z,100823.00
2018-09-22T09:17:54.349Z,100824.00
2018-09-22T09:20:23.568Z,100818.00
2018-09-22T09:23:03.005Z,100815.00
2018-09-22T09:25:32.198Z,100818.00
2018-09-22T09:28:01.487Z,100806.00
2018-09-22T09:30:30.686Z,100836.00
2018-09-22T09:33:00.494Z,100819.00
2018-09-22T09:35:29.670Z,100826.00
2018-09-22T09:37:58.881Z,100816.00
2018-09-22T09:43:33.810Z,100814.00
2018-09-22T09:46:02.959Z,100819.00
2018-09-22T09:48:32.319Z,100818.00
2018-09-22T09:51:12.605Z,100810.00
2018-09-22T09:53:41.770Z,100809.00
2018-09-22T09:56:10.986Z,100807.00
2018-09-22T09:58:40.166Z,100807.00
2018-09-22T10:01:09.361Z,100798.00
2018-09-22T10:03:38.566Z,100802.00
2018-09-22T10:06:07.855Z,100800.00
2018-09-22T10:12:58.265Z,100813.00
2018-09-22T10:15:27.417Z,100814.00
2018-09-22T10:17:57.004Z,100817.00
2018-09-22T10:20:26.194Z,100829.00
2018-09-22T10:23:14.402Z,100829.00
2018-09-22T10:25:43.597Z,100836.00
2018-09-22T10:28:12.825Z,100816.00
2018-09-22T10:30:41.981Z,100822.00
2018-09-22T10:33:11.271Z,100816.00
2018-09-22T10:35:40.430Z,100820.00
2018-09-22T10:38:09.622Z,100821.00
2018-09-22T10:40:38.824Z,100831.00
2018-09-22T10:43:08.301Z,100823.00
2018-09-22T10:45:37.704Z,100831.00
2018-09-22T10:48:06.879Z,100817.00
2018-09-22T10:50:36.054Z,100828.00
2018-09-22T10:53:05.269Z,100833.00
2018-09-22T10:55:34.415Z,100829.00
2018-09-22T10:58:03.584Z,100825.00
2018-09-22T11:00:32.737Z,100819.00
2018-09-22T11:03:02.002Z,100827.00
2018-09-22T11:05:31.161Z,100813.00
2018-09-22T11:08:00.378Z,100820.00
2018-09-22T11:10:29.629Z,100812.00
2018-09-22T11:12:58.856Z,100825.00
2018-09-22T11:15:28.019Z,100826.00
2018-09-22T11:17:57.719Z,100818.00
2018-09-22T11:20:26.872Z,100814.00
2018-09-22T11:23:12.918Z,100822.00
2018-09-22T11:26:11.398Z,100806.00
2018-09-22T11:28:40.618Z,100811.00
2018-09-22T11:31:13.585Z,100808.00
2018-09-22T11:34:12.265Z,100805.00
2018-09-22T11:36:41.554Z,100814.00
2018-09-22T11:39:14.380Z,100813.00
2018-09-22T11:42:10.824Z,100824.00
2018-09-22T11:44:40.009Z,100820.00
2018-09-22T11:47:15.358Z,100824.00
2018-09-22T11:50:11.390Z,100807.00
2018-09-22T11:52:40.676Z,100824.00
2018-09-22T11:55:13.621Z,100815.00
2018-09-22T12:00:43.225Z,100825.00
2018-09-22T12:03:13.856Z,100810.00
2018-09-22T12:06:12.554Z,100824.00
2018-09-22T12:08:41.792Z,100826.00
2018-09-22T12:11:14.354Z,100815.00
2018-09-22T12:14:11.163Z,100816.00
2018-09-22T12:16:40.333Z,100824.00
2018-09-22T12:19:15.533Z,100818.00
2018-09-22T12:22:11.219Z,100817.00
2018-09-22T12:24:41.513Z,100814.00
2018-09-22T12:27:14.311Z,100811.00
2018-09-22T12:30:11.090Z,100812.00
2018-09-22T12:32:40.262Z,100813.00
2018-09-22T12:35:15.630Z,100802.00
2018-09-22T12:38:11.299Z,100801.00
2018-09-22T12:40:40.556Z,100806.00
2018-09-22T12:43:13.497Z,100802.00
2018-09-22T12:45:42.866Z,100797.00
2018-09-22T12:48:12.017Z,100797.00
2018-09-22T12:50:41.186Z,100800.00
2018-09-22T12:53:10.401Z,100803.00
2018-09-22T12:55:39.559Z,100800.00
2018-09-22T13:01:13.649Z,100806.00
2018-09-22T13:03:42.823Z,100810.00
2018-09-22T13:06:15.144Z,100803.00
2018-09-22T13:08:44.301Z,100801.00
2018-09-22T13:11:13.538Z,100799.00
2018-09-22T13:13:42.730Z,100793.00
2018-09-22T13:16:13.366Z,100793.00
2018-09-22T13:20:19.113Z,100799.00
2018-09-22T13:23:13.482Z,100790.00
2018-09-22T13:26:12.437Z,100789.00
2018-09-22T13:29:11.517Z,100783.00
2018-09-22T13:31:40.665Z,100778.00
2018-09-22T13:34:09.827Z,100780.00
2018-09-22T13:36:39.073Z,100784.00
2018-09-22T13:39:14.564Z,100772.00
2018-09-22T13:41:43.804Z,100783.00
2018-09-22T13:44:12.953Z,100792.00
2018-09-22T13:46:42.162Z,100783.00
2018-09-22T13:49:11.312Z,100779.00
2018-09-22T13:51:40.581Z,100782.00
2018-09-22T13:54:09.845Z,100788.00
2018-09-22T13:56:39.010Z,100785.00
2018-09-22T13:59:08.160Z,100783.00
2018-09-22T14:01:37.379Z,100772.00
2018-09-22T14:04:06.706Z,100775.00
2018-09-22T14:06:35.881Z,100790.00
2018-09-22T14:09:08.845Z,100790.00
2018-09-22T14:11:38.093Z,100787.00
2018-09-22T14:14:07.631Z,100771.00
2018-09-22T14:16:36.861Z,100773.00
2018-09-22T14:19:06.031Z,100771.00
2018-09-22T14:21:35.227Z,100766.00
2018-09-22T14:24:04.430Z,100757.00
2018-09-22T14:26:33.596Z,100772.00
2018-09-22T14:29:02.789Z,100776.00
2018-09-22T14:31:31.953Z,100770.00
2018-09-22T14:34:01.107Z,100784.00
2018-09-22T14:36:30.289Z,100780.00
2018-09-22T14:38:59.892Z,100770.00
2018-09-22T14:41:29.208Z,100759.00
2018-09-22T14:43:58.383Z,100775.00
2018-09-22T14:49:27.414Z,100754.00
2018-09-22T14:51:56.666Z,100757.00
2018-09-22T14:57:25.824Z,100771.00
2018-09-22T14:59:54.989Z,100755.00
2018-09-22T15:02:24.165Z,100759.00
2018-09-22T15:04:54.043Z,100756.00
2018-09-22T15:07:23.218Z,100759.00
2018-09-22T15:09:52.398Z,100757.00
2018-09-22T15:12:21.658Z,100756.00
2018-09-22T15:15:14.478Z,100763.00
2018-09-22T15:18:12.530Z,100757.00
2018-09-22T15:20:41.738Z,100768.00
2018-09-22T15:23:14.598Z,100767.00
2018-09-22T15:26:11.078Z,100777.00
2018-09-22T15:34:41.342Z,100757.00
2018-09-22T15:37:14.104Z,100762.00
2018-09-22T15:40:12.634Z,100769.00
2018-09-22T15:42:41.994Z,100778.00
2018-09-22T15:45:14.817Z,100764.00
2018-09-22T15:47:54.129Z,100762.00
2018-09-22T15:50:23.356Z,100761.00
2018-09-22T15:53:11.914Z,100750.00
2018-09-22T15:58:41.162Z,100755.00
2018-09-22T16:01:10.462Z,100747.00
2018-09-22T16:03:39.628Z,100744.00
2018-09-22T16:06:08.832Z,100743.00
2018-09-22T16:08:38.004Z,100749.00
2018-09-22T16:11:07.327Z,100756.00
2018-09-22T16:16:36.493Z,100744.00
2018-09-22T16:19:05.912Z,100731.00
2018-09-22T16:24:35.800Z,100736.00
2018-09-22T16:27:04.982Z,100738.00
2018-09-22T16:29:34.139Z,100744.00
2018-09-22T16:32:13.892Z,100737.00
2018-09-22T16:34:43.036Z,100744.00
2018-09-22T16:37:12.215Z,100736.00
2018-09-22T16:39:41.401Z,100737.00
2018-09-22T16:42:10.583Z,100742.00
2018-09-22T16:44:40.093Z,100744.00
2018-09-22T16:47:09.266Z,100745.00
2018-09-22T16:49:38.496Z,100741.00
2018-09-22T16:52:07.612Z,100750.00
2018-09-22T16:54:36.808Z,100738.00
2018-09-22T16:57:13.546Z,100737.00
2018-09-22T16:59:42.750Z,100740.00
2018-09-22T17:02:13.426Z,100741.00
2018-09-22T17:04:42.650Z,100739.00
2018-09-22T17:07:11.853Z,100742.00
2018-09-22T17:09:41.083Z,100747.00
2018-09-22T17:12:10.218Z,100757.00
2018-09-22T17:14:39.364Z,100749.00
2018-09-22T17:17:08.720Z,100734.00
2018-09-22T17:22:38.000Z,100742.00
2018-09-22T17:25:13.718Z,100750.00
2018-09-22T17:27:42.901Z,100747.00
2018-09-22T17:30:12.097Z,100743.00
2018-09-22T17:32:41.229Z,100746.00
2018-09-22T17:35:10.434Z,100766.00
2018-09-22T17:37:39.644Z,100773.00
2018-09-22T17:40:08.810Z,100769.00
2018-09-22T17:42:37.976Z,100762.00
2018-09-22T17:45:07.472Z,100758.00
2018-09-22T17:47:37.561Z,100753.00
2018-09-22T17:50:06.769Z,100749.00
2018-09-22T17:52:35.926Z,100751.00
2018-09-22T17:55:05.326Z,100752.00
2018-09-22T17:57:34.480Z,100758.00
2018-09-22T18:00:03.637Z,100749.00
2018-09-22T18:02:32.807Z,100757.00
2018-09-22T18:05:02.026Z,100754.00
2018-09-22T18:07:31.197Z,100742.00
2018-09-22T18:10:00.388Z,100756.00
2018-09-22T18:12:29.542Z,100756.00
2018-09-22T18:14:58.703Z,100762.00
2018-09-22T18:20:28.794Z,100768.00
2018-09-22T18:22:57.950Z,100771.00
2018-09-22T18:25:27.095Z,100749.00
2018-09-22T18:27:56.278Z,100781.00
2018-09-22T18:30:25.434Z,100770.00
2018-09-22T18:32:54.595Z,100770.00
2018-09-22T18:35:23.805Z,100761.00
2018-09-22T18:37:53.037Z,100753.00
2018-09-22T18:45:15.194Z,100739.00
2018-09-22T18:47:44.473Z,100746.00
2018-09-22T18:50:23.988Z,100742.00
2018-09-22T18:52:53.589Z,100740.00
2018-09-22T18:55:22.835Z,100740.00
2018-09-22T18:57:52.405Z,100743.00
2018-09-22T19:00:21.714Z,100754.00
2018-09-22T19:02:50.994Z,100761.00
2018-09-22T19:05:20.475Z,100754.00
2018-09-22T19:08:20.857Z,100751.00
2018-09-22T19:11:13.283Z,100759.00
2018-09-22T19:13:58.872Z,100790.00
2018-09-22T19:16:49.013Z,100779.00
2018-09-22T19:19:23.721Z,100768.00
2018-09-22T19:21:57.678Z,100756.00
2018-09-22T19:27:35.981Z,100750.00
2018-09-22T19:30:12.445Z,100754.00
2018-09-22T19:33:17.016Z,100748.00
2018-09-22T20:35:10.941Z,100716.00
2018-09-22T20:43:41.943Z,100736.00
2018-09-22T20:46:14.498Z,100733.00
2018-09-22T20:49:11.115Z,100727.00
2018-09-22T20:51:40.462Z,100728.00
2018-09-22T20:54:15.573Z,100718.00
2018-09-22T21:03:13.213Z,100713.00
2018-09-22T21:09:11.083Z,100708.00
2018-09-22T21:11:41.055Z,100710.00
2018-09-22T21:14:14.924Z,100705.00
2018-09-22T21:17:11.147Z,100706.00
2018-09-22T21:19:40.390Z,100705.00
2018-09-22T21:22:15.807Z,100702.00
2018-09-22T21:28:12.326Z,100708.00
2018-09-22T21:34:11.018Z,100718.00
2018-09-22T21:39:40.132Z,100701.00
2018-09-22T21:42:15.217Z,100711.00
2018-09-22T21:45:11.277Z,100713.00
2018-09-22T21:47:40.472Z,100707.00
2018-09-22T21:50:15.581Z,100701.00
2018-09-22T21:52:44.773Z,100698.00
2018-09-22T21:55:14.018Z,100710.00
2018-09-22T21:57:43.240Z,100698.00
2018-09-22T22:00:12.399Z,100689.00
2018-09-22T22:02:41.626Z,100688.00
2018-09-22T22:05:11.141Z,100693.00
2018-09-22T22:07:40.289Z,100702.00
2018-09-22T22:10:09.446Z,100695.00
2018-09-22T22:12:38.644Z,100689.00
2018-09-22T22:15:13.858Z,100684.00
2018-09-22T22:17:43.041Z,100683.00
2018-09-22T22:20:13.938Z,100678.00
2018-09-22T22:22:43.209Z,100696.00
2018-09-22T22:25:12.374Z,100704.00
2018-09-22T22:27:41.521Z,100699.00
2018-09-22T22:30:11.665Z,100702.00
2018-09-22T22:32:40.813Z,100712.00
2018-09-22T22:35:09.998Z,100698.00
2018-09-22T22:37:39.297Z,100693.00
2018-09-22T22:40:08.474Z,100700.00
2018-09-22T22:42:37.656Z,100695.00
2018-09-22T22:45:06.903Z,100693.00
2018-09-22T22:50:39.060Z,100685.00
2018-09-22T22:53:08.260Z,100674.00
2018-09-22T22:55:37.431Z,100664.00
2018-09-22T22:58:06.700Z,100664.00
2018-09-22T23:00:35.865Z,100663.00
2018-09-22T23:03:05.054Z,100663.00
2018-09-22T23:05:34.249Z,100666.00
2018-09-22T23:08:03.807Z,100665.00
2018-09-22T23:10:33.049Z,100664.00
2018-09-22T23:13:02.224Z,100669.00
2018-09-22T23:15:31.395Z,100668.00
2018-09-22T23:18:00.558Z,100669.00
2018-09-22T23:20:29.745Z,100665.00
2018-09-22T23:22:58.929Z,100666.00
2018-09-22T23:25:28.138Z,100662.00
2018-09-22T23:27:57.613Z,100667.00
2018-09-22T23:30:26.782Z,100666.00
2018-09-22T23:32:55.945Z,100658.00
2018-09-22T23:35:25.305Z,100657.00
2018-09-22T23:37:54.471Z,100658.00
2018-09-22T23:40:23.907Z,100660.00
2018-09-22T23:42:53.121Z,100655.00
2018-09-22T23:45:22.282Z,100646.00
2018-09-22T23:47:51.701Z,100648.00
2018-09-22T23:50:20.899Z,100643.00
2018-09-22T23:52:50.061Z,100643.00
2018-09-22T23:55:19.250Z,100635.00
2018-09-22T23:57:48.421Z,100637.00
